Time;durP1;ratioP1;P1;durP2;ratioP2;P2;SDS_P1;SDS_P2;PMS_P1;PMS_P2;Temp;Humidity;BMP_temperature;BMP_pressure;BME280_temperature;BME280_humidity;BME280_pressure;Samples;Min_cycle;Max_cycle;Signal;HPM_P1;HPM_P2
2024/02/09 00:01:37;;;;;;;2.15;1.30;;;12.30;86.20;;;;;;6316620;22;20051;-81
2024/02/09 00:04:22;;;;;;;2.03;1.30;;;11.70;85.90;;;;;;6343852;22;19979;-81
2024/02/09 00:06:54;;;;;;;3.13;1.27;;;11.70;85.80;;;;;;6342543;22;19991;-81
2024/02/09 00:09:20;;;;;;;2.28;1.38;;;11.70;85.90;;;;;;6341821;22;19991;-83
2024/02/09 00:12:13;;;;;;;1.60;1.23;;;11.70;85.80;;;;;;6342113;22;19998;-80
2024/02/09 00:27:59;;;;;;;2.33;1.48;;;11.70;85.80;;;;;;6337397;22;20063;-81
2024/02/09 00:33:44;;;;;;;2.00;1.33;;;11.70;85.90;;;;;;6363743;22;19995;-82
2024/02/09 03:33:30;;;;;;;2.83;1.63;;;11.70;86.00;;;;;;6362825;22;20023;-83
2024/02/09 03:59:44;;;;;;;2.83;1.70;;;11.70;86.00;;;;;;6361156;22;20018;-82
2024/02/09 04:03:06;;;;;;;2.92;1.67;;;11.70;86.10;;;;;;6368805;22;20014;-82
2024/02/09 04:05:36;;;;;;;3.10;1.70;;;11.60;86.00;;;;;;6342870;22;20014;-81
2024/02/09 04:29:07;;;;;;;2.45;1.67;;;11.70;86.10;;;;;;6355062;22;20006;-82
2024/02/09 04:31:41;;;;;;;2.17;1.45;;;11.60;86.10;;;;;;6342059;22;19995;-82
2024/02/09 04:49:57;;;;;;;3.47;1.90;;;11.70;86.30;;;;;;6352953;22;20014;-80
2024/02/09 04:57:35;;;;;;;3.30;1.75;;;11.70;86.30;;;;;;6354182;22;20003;-81
2024/02/09 05:00:01;;;;;;;3.05;1.85;;;11.70;86.40;;;;;;6363712;22;19987;-80
2024/02/09 05:02:37;;;;;;;4.18;1.73;;;11.70;86.40;;;;;;6368242;22;19987;-82
2024/02/09 05:05:22;;;;;;;3.05;1.50;;;11.60;86.40;;;;;;6346469;22;20066;-81
2024/02/09 05:07:55;;;;;;;3.50;1.75;;;11.60;86.40;;;;;;6368575;22;19993;-81
2024/02/09 05:10:24;;;;;;;3.22;1.70;;;11.60;86.40;;;;;;6314856;22;20082;-81
2024/02/09 05:12:52;;;;;;;3.75;1.70;;;12.90;87.20;;;;;;6368381;22;20007;-81
2024/02/09 05:15:38;;;;;;;4.75;1.80;;;11.60;86.50;;;;;;6361919;22;20086;-81
2024/02/09 05:18:13;;;;;;;2.70;1.50;;;11.60;86.50;;;;;;6366317;22;20030;-81
2024/02/09 05:20:40;;;;;;;2.83;1.70;;;11.70;86.60;;;;;;6368298;22;19983;-83
2024/02/09 05:23:10;;;;;;;3.13;1.60;;;11.60;86.60;;;;;;6315516;22;20018;-80
2024/02/09 05:25:36;;;;;;;4.15;2.00;;;11.60;86.60;;;;;;6341440;22;19987;-81
2024/02/09 05:33:36;;;;;;;3.35;1.73;;;11.70;86.70;;;;;;6367436;22;20010;-80
2024/02/09 05:36:03;;;;;;;3.28;1.70;;;11.60;86.70;;;;;;6315376;22;19997;-81
2024/02/09 05:41:26;;;;;;;3.63;1.70;;;11.70;86.80;;;;;;6367073;22;20062;-82
2024/02/09 05:43:55;;;;;;;2.42;1.40;;;11.60;86.70;;;;;;6340378;22;20010;-81
2024/02/09 05:46:22;;;;;;;3.40;1.88;;;11.70;86.90;;;;;;6341070;22;19987;-81
2024/02/09 05:48:49;;;;;;;4.97;1.80;;;11.70;86.90;;;;;;6341469;22;19986;-80
2024/02/09 05:51:44;;;;;;;2.92;1.70;;;11.60;86.80;;;;;;6341054;22;20008;-82
2024/02/09 05:54:12;;;;;;;3.58;1.65;;;11.70;86.90;;;;;;6341198;22;19990;-81
2024/02/09 05:56:38;;;;;;;3.85;1.90;;;11.70;87.00;;;;;;6340741;22;19987;-80
2024/02/09 05:59:05;;;;;;;4.85;1.90;;;11.70;86.90;;;;;;6359363;22;19995;-81
2024/02/09 06:01:38;;;;;;;3.53;1.60;;;11.50;86.90;;;;;;6367902;22;20007;-82
2024/02/09 06:04:05;;;;;;;3.70;1.75;;;11.60;86.90;;;;;;6316003;22;20011;-81
2024/02/09 06:06:45;;;;;;;3.08;1.70;;;11.70;87.10;;;;;;6367763;22;20010;-82
2024/02/09 06:09:14;;;;;;;2.45;1.48;;;11.60;87.10;;;;;;6340209;22;19991;-81
2024/02/09 06:11:41;;;;;;;3.35;1.55;;;11.80;87.10;;;;;;6365425;22;19998;-82
2024/02/09 06:14:10;;;;;;;4.18;1.70;;;11.70;87.10;;;;;;6367254;22;20006;-83
2024/02/09 06:17:04;;;;;;;3.53;1.50;;;11.70;87.00;;;;;;6340497;22;20011;-81
2024/02/09 06:33:50;;;;;;;3.08;1.60;;;11.70;87.40;;;;;;6366360;22;20023;-82
2024/02/09 06:36:17;;;;;;;3.10;1.45;;;11.70;87.40;;;;;;6309796;22;19991;-80
2024/02/09 06:39:18;;;;;;;3.58;1.70;;;11.70;87.40;;;;;;6334325;22;20007;-83
2024/02/09 06:41:48;;;;;;;3.83;1.80;;;11.70;87.40;;;;;;6309796;22;20003;-82
2024/02/09 07:10:25;;;;;;;3.15;1.50;;;11.60;87.10;;;;;;6337522;22;20033;-81
2024/02/09 08:38:18;;;;;;;1.98;1.10;;;11.70;87.50;;;;;;6356329;22;20014;-81
2024/02/09 08:48:43;;;;;;;3.25;1.52;;;11.70;87.60;;;;;;6366120;22;19999;-81
2024/02/09 09:24:54;;;;;;;25.48;3.47;;;11.70;88.00;;;;;;6310421;22;20015;-82
2024/02/09 09:48:30;;;;;;;12.07;2.17;;;11.70;87.90;;;;;;6354629;22;20222;-83
2024/02/09 09:51:10;;;;;;;14.88;2.10;;;12.20;88.20;;;;;;6337672;22;20006;-83
2024/02/09 10:01:24;;;;;;;17.10;2.20;;;11.70;87.80;;;;;;6359956;22;20009;-84
2024/02/09 10:04:12;;;;;;;12.25;2.30;;;11.70;87.70;;;;;;6342252;22;19991;-85
2024/02/09 10:06:46;;;;;;;10.98;1.88;;;11.80;87.80;;;;;;6366394;22;19986;-85
2024/02/09 10:09:23;;;;;;;12.88;2.13;;;11.70;87.80;;;;;;6367491;22;19983;-84
2024/02/09 10:11:57;;;;;;;12.35;1.95;;;11.70;87.80;;;;;;6333807;22;19979;-84
2024/02/09 11:08:53;;;;;;;7.63;1.38;;;11.70;87.70;;;;;;6357570;22;19995;-85
2024/02/09 11:11:53;;;;;;;6.70;1.30;;;11.70;87.70;;;;;;6346559;22;20010;-82
2024/02/09 13:16:08;;;;;;;3.20;0.98;;;11.80;87.70;;;;;;6352794;22;20025;-80
2024/02/09 13:18:49;;;;;;;2.78;0.90;;;11.80;87.70;;;;;;6325074;22;20006;-79
2024/02/09 13:22:04;;;;;;;3.50;1.20;;;11.80;87.70;;;;;;6348791;22;20005;-81
2024/02/09 13:25:30;;;;;;;;;;;;;;;;;;;;;
2024/02/09 13:45:49;;;;;;;2.38;0.80;;;11.80;87.90;;;;;;6346859;22;20159;-81
2024/02/09 13:48:38;;;;;;;3.22;1.20;;;11.80;87.80;;;;;;6314189;22;20001;-81
2024/02/09 13:51:40;;;;;;;2.60;0.98;;;11.80;87.90;;;;;;6355651;22;19994;-80
2024/02/09 13:54:06;;;;;;;;;;;11.70;87.80;;;;;;6298574;22;20006;-80
2024/02/09 15:10:25;;;;;;;2.63;1.02;;;11.80;87.90;;;;;;6352093;22;20032;-80
2024/02/09 16:01:18;;;;;;;2.28;1.05;;;11.80;87.90;;;;;;6369290;22;20044;-84
2024/02/09 16:24:10;;;;;;;3.20;1.00;;;11.70;87.90;;;;;;6348129;22;20018;-79
2024/02/09 16:33:12;;;;;;;2.58;1.10;;;11.80;87.90;;;;;;6367755;22;20043;-83
2024/02/09 16:46:55;;;;;;;2.22;1.00;;;11.70;87.90;;;;;;6363654;22;20011;-83
2024/02/09 17:23:10;;;;;;;2.72;1.17;;;11.70;88.00;;;;;;6346178;22;20401;-79
2024/02/09 18:58:56;;;;;;;4.25;1.10;;;11.70;88.20;;;;;;6364297;22;19999;-84
2024/02/09 19:01:38;;;;;;;1.95;1.05;;;11.80;88.30;;;;;;6366992;22;20045;-85
2024/02/09 19:04:06;;;;;;;3.08;1.33;;;12.90;88.90;;;;;;6368054;22;19978;-85
2024/02/09 19:06:38;;;;;;;2.30;1.13;;;11.60;88.20;;;;;;6369528;22;19997;-86
2024/02/09 19:09:07;;;;;;;2.03;1.10;;;11.70;88.30;;;;;;6317955;22;19983;-85
2024/02/09 19:11:41;;;;;;;3.03;1.30;;;11.90;88.40;;;;;;6312298;22;19994;-85
2024/02/09 19:14:25;;;;;;;;;;;11.70;88.20;;;;;;6336291;22;19987;-85
2024/02/09 19:16:57;;;;;;;2.28;1.23;;;11.70;88.20;;;;;;6336731;22;19890;-86
2024/02/09 19:19:28;;;;;;;3.08;1.20;;;11.80;88.30;;;;;;6311326;22;19987;-85
2024/02/09 19:21:57;;;;;;;2.67;1.30;;;11.60;88.20;;;;;;6312772;22;19980;-84
2024/02/09 19:25:04;;;;;;;2.55;1.05;;;11.70;88.30;;;;;;6286083;22;19983;-85
2024/02/09 19:27:40;;;;;;;2.55;1.10;;;11.90;88.40;;;;;;6311589;22;19983;-85
2024/02/09 19:30:14;;;;;;;3.22;1.08;;;11.80;88.30;;;;;;6311065;22;20039;-85
2024/02/09 19:32:41;;;;;;;2.78;1.33;;;11.60;88.10;;;;;;6311606;22;20035;-85
2024/02/09 19:35:09;;;;;;;1.95;1.00;;;11.70;88.30;;;;;;6286177;22;19983;-85
2024/02/09 19:37:48;;;;;;;1.47;1.00;;;11.70;88.20;;;;;;6311144;22;19987;-86
2024/02/09 19:40:20;;;;;;;3.38;1.30;;;11.80;88.30;;;;;;6311529;22;19979;-85
2024/02/09 19:42:57;;;;;;;4.13;1.35;;;11.90;88.40;;;;;;6337931;22;19979;-85
2024/02/09 19:45:31;;;;;;;3.63;1.20;;;11.70;88.20;;;;;;6286047;22;19984;-84
2024/02/09 19:48:00;;;;;;;3.88;1.08;;;11.70;88.30;;;;;;6310508;22;19990;-85
2024/02/09 19:50:27;;;;;;;2.67;1.20;;;11.70;88.20;;;;;;6286265;22;19987;-85
2024/02/09 19:53:06;;;;;;;3.33;1.30;;;11.70;88.30;;;;;;6285287;22;19984;-85
2024/02/09 19:55:47;;;;;;;2.95;1.10;;;11.70;88.30;;;;;;6313154;22;19994;-84
2024/02/09 19:58:19;;;;;;;1.88;1.00;;;11.80;88.30;;;;;;6338826;22;19983;-86
2024/02/09 20:00:49;;;;;;;2.70;1.10;;;11.80;88.30;;;;;;6339258;22;19994;-86
2024/02/09 20:03:19;;;;;;;2.72;1.30;;;11.80;88.40;;;;;;6313353;22;19983;-85
2024/02/09 20:05:51;;;;;;;2.38;1.17;;;12.00;88.50;;;;;;6309046;22;20003;-85
2024/02/09 20:08:22;;;;;;;2.80;1.25;;;11.70;88.30;;;;;;6288166;22;19995;-85
2024/02/09 20:10:52;;;;;;;1.60;1.00;;;11.70;88.30;;;;;;6313265;22;19979;-84
2024/02/09 20:13:20;;;;;;;1.67;1.10;;;12.00;88.50;;;;;;6339495;22;19972;-84
2024/02/09 20:15:50;;;;;;;2.70;1.20;;;11.70;88.30;;;;;;6287337;22;19983;-84
2024/02/09 20:18:23;;;;;;;2.80;1.20;;;11.80;88.30;;;;;;6312558;22;19994;-85
2024/02/09 20:21:10;;;;;;;3.08;1.30;;;11.70;88.30;;;;;;6338472;22;20003;-86
2024/02/09 20:23:44;;;;;;;2.22;1.30;;;11.60;88.20;;;;;;6237190;22;19979;-85
2024/02/09 20:26:23;;;;;;;2.63;1.30;;;11.90;88.40;;;;;;6313638;22;19983;-85
2024/02/09 20:28:54;;;;;;;3.33;1.50;;;11.70;88.30;;;;;;6308795;22;20002;-84
2024/02/09 20:31:27;;;;;;;2.20;1.10;;;11.70;88.30;;;;;;6301290;22;20014;-85
2024/02/09 20:33:59;;;;;;;2.58;1.10;;;11.70;88.30;;;;;;6311364;22;19984;-85
2024/02/09 20:36:32;;;;;;;3.03;1.50;;;11.80;88.40;;;;;;6312857;22;20058;-85
2024/02/09 20:39:10;;;;;;;3.03;1.23;;;11.70;88.40;;;;;;6339128;22;20009;-85
2024/02/09 20:41:40;;;;;;;2.17;1.20;;;11.70;88.40;;;;;;6338605;22;19975;-85
2024/02/09 20:44:33;;;;;;;2.92;1.20;;;11.90;88.50;;;;;;6312694;22;19984;-85
2024/02/09 20:47:07;;;;;;;2.03;1.10;;;11.70;88.30;;;;;;6312796;22;19975;-85
2024/02/09 20:49:38;;;;;;;2.65;1.20;;;11.80;88.40;;;;;;6337735;22;19975;-85
2024/02/09 20:52:26;;;;;;;2.63;1.30;;;11.70;88.30;;;;;;6262994;22;20010;-84
2024/02/09 20:54:55;;;;;;;2.58;1.23;;;11.90;88.50;;;;;;6312657;22;19980;-85
2024/02/09 20:58:05;;;;;;;2.47;1.27;;;11.70;88.40;;;;;;6339070;22;19976;-85
2024/02/09 21:00:55;;;;;;;2.72;1.30;;;11.70;88.40;;;;;;6312643;22;20014;-85
2024/02/09 21:06:01;;;;;;;2.97;1.45;;;11.70;88.40;;;;;;6321789;22;20003;-84
2024/02/09 21:08:30;;;;;;;3.38;1.25;;;11.70;88.40;;;;;;6337019;22;19991;-84
2024/02/09 21:11:25;;;;;;;2.65;1.23;;;11.80;88.40;;;;;;6312065;22;19987;-85
2024/02/09 21:14:00;;;;;;;2.08;1.08;;;11.80;88.50;;;;;;6318165;22;19987;-84
